Current Weather

Snohomish County (Paine Fld)

Everett, Washington (KPAE)

Report from: Wednesday, May 29, 2024 12:53 AM PDT
Current time: Wednesday, May 29, 2024 1:52 AM PDT

Nearby weather – Weather history – Daily summaries
Weather forecast

Temperature10.0°C (50.0°F)
Wind chill9.1°C (48.5°F)
Dew point7.8°C (46.0°F)
Winds 4 kts (2.1 m/s, 4.6 mph) East (100°)
Visibility10 mi. (16.1 km)
Clouds Ceiling: Broken clouds 1,600 ft. (488 m)
Overcast 2,900 ft. (884 m)
Altimeter30.21 in.Hg (1023 mB)
Relative humidity86 %
Density altitude-786 ft. (-240 m)
Sea-level pressure102.3 kPa (1023 mB, 30.22 in.Hg)
Max temp last 24 hours13.9°C (57.0°F)
Min temp last 24 hours10.0°C (50.0°F)
Remarks Fully automated report
Automated weather observing station with precipitation discriminator
Flight conditions Marginal Visual Meteorological Conditions
Raw dataKPAE 290753Z AUTO 10004KT 10SM BKN016 OVC029 10/08 A3021 RMK AO2 SLP233 T01000078 401390100
An error has occurred. This application may no longer respond until reloaded. Reload 🗙